sensor_id;sensor_type;location;lat;lon;timestamp;temperature;humidity
52869;DHT22;39100;53.480;6.158;2022-08-20T00:00:40;18.90;99.90
52869;DHT22;39100;53.480;6.158;2022-08-20T00:03:14;18.90;99.90
52869;DHT22;39100;53.480;6.158;2022-08-20T00:05:44;18.90;99.90
52869;DHT22;39100;53.480;6.158;2022-08-20T00:08:10;18.80;99.90
52869;DHT22;39100;53.480;6.158;2022-08-20T00:10:38;18.80;99.90
52869;DHT22;39100;53.480;6.158;2022-08-20T00:13:07;18.70;99.90
52869;DHT22;39100;53.480;6.158;2022-08-20T00:15:35;18.80;99.90
52869;DHT22;39100;53.480;6.158;2022-08-20T00:18:03;18.70;99.90
52869;DHT22;39100;53.480;6.158;2022-08-20T00:20:33;18.70;99.90
52869;DHT22;39100;53.480;6.158;2022-08-20T00:22:59;18.60;99.90
52869;DHT22;39100;53.480;6.158;2022-08-20T00:25:27;18.60;99.90
52869;DHT22;39100;53.480;6.158;2022-08-20T00:27:53;18.50;99.90
52869;DHT22;39100;53.480;6.158;2022-08-20T00:30:20;18.50;99.90
52869;DHT22;39100;53.480;6.158;2022-08-20T00:32:58;18.50;99.90
52869;DHT22;39100;53.480;6.158;2022-08-20T00:35:30;18.50;99.90
52869;DHT22;39100;53.480;6.158;2022-08-20T00:37:56;18.40;99.90
52869;DHT22;39100;53.480;6.158;2022-08-20T00:40:26;18.40;99.90
52869;DHT22;39100;53.480;6.158;2022-08-20T00:42:54;18.40;99.90
52869;DHT22;39100;53.480;6.158;2022-08-20T00:45:24;18.30;99.90
52869;DHT22;39100;53.480;6.158;2022-08-20T00:47:49;18.30;99.90
52869;DHT22;39100;53.480;6.158;2022-08-20T00:50:19;18.30;99.90
52869;DHT22;39100;53.480;6.158;2022-08-20T00:52:48;18.30;99.90
52869;DHT22;39100;53.480;6.158;2022-08-20T00:55:16;18.20;99.90
52869;DHT22;39100;53.480;6.158;2022-08-20T00:57:46;18.20;99.90
52869;DHT22;39100;53.480;6.158;2022-08-20T01:00:25;18.10;99.90
52869;DHT22;39100;53.480;6.158;2022-08-20T01:02:51;18.10;99.90
52869;DHT22;39100;53.480;6.158;2022-08-20T01:05:17;18.10;99.90
52869;DHT22;39100;53.480;6.158;2022-08-20T01:07:43;18.10;99.90
52869;DHT22;39100;53.480;6.158;2022-08-20T01:10:17;18.10;99.90
52869;DHT22;39100;53.480;6.158;2022-08-20T01:12:45;18.00;99.90
52869;DHT22;39100;53.480;6.158;2022-08-20T01:15:16;18.50;99.90
52869;DHT22;39100;53.480;6.158;2022-08-20T01:17:54;18.00;99.90
52869;DHT22;39100;53.480;6.158;2022-08-20T01:20:28;18.00;99.90
52869;DHT22;39100;53.480;6.158;2022-08-20T01:23:14;17.90;99.90
52869;DHT22;39100;53.480;6.158;2022-08-20T01:25:56;17.90;99.90
52869;DHT22;39100;53.480;6.158;2022-08-20T01:28:30;17.80;99.90
52869;DHT22;39100;53.480;6.158;2022-08-20T01:30:57;17.70;99.90
52869;DHT22;39100;53.480;6.158;2022-08-20T01:33:23;17.70;99.90
52869;DHT22;39100;53.480;6.158;2022-08-20T01:35:51;17.70;99.90
52869;DHT22;39100;53.480;6.158;2022-08-20T01:38:16;17.60;99.90
52869;DHT22;39100;53.480;6.158;2022-08-20T01:43:14;17.60;99.90
52869;DHT22;39100;53.480;6.158;2022-08-20T01:45:40;17.60;99.90
52869;DHT22;39100;53.480;6.158;2022-08-20T01:48:05;17.50;99.90
52869;DHT22;39100;53.480;6.158;2022-08-20T01:50:34;17.50;99.90
52869;DHT22;39100;53.480;6.158;2022-08-20T01:53:10;17.50;99.90
52869;DHT22;39100;53.480;6.158;2022-08-20T01:55:39;17.50;99.90
52869;DHT22;39100;53.480;6.158;2022-08-20T01:58:05;17.50;99.90
52869;DHT22;39100;53.480;6.158;2022-08-20T02:00:31;17.50;99.90
52869;DHT22;39100;53.480;6.158;2022-08-20T02:02:57;17.50;99.90
52869;DHT22;39100;53.480;6.158;2022-08-20T02:05:22;17.50;99.90
52869;DHT22;39100;53.480;6.158;2022-08-20T02:07:48;17.50;99.90
52869;DHT22;39100;53.480;6.158;2022-08-20T02:10:17;17.40;99.90
52869;DHT22;39100;53.480;6.158;2022-08-20T02:12:42;17.40;99.90
52869;DHT22;39100;53.480;6.158;2022-08-20T02:15:10;17.40;99.90
52869;DHT22;39100;53.480;6.158;2022-08-20T02:17:36;17.40;99.90
52869;DHT22;39100;53.480;6.158;2022-08-20T02:20:14;17.40;99.90
52869;DHT22;39100;53.480;6.158;2022-08-20T02:25:12;17.40;99.90
52869;DHT22;39100;53.480;6.158;2022-08-20T02:27:40;17.50;99.90
52869;DHT22;39100;53.480;6.158;2022-08-20T02:30:13;17.50;99.90
52869;DHT22;39100;53.480;6.158;2022-08-20T02:32:40;17.50;99.90
52869;DHT22;39100;53.480;6.158;2022-08-20T02:35:08;17.50;99.90
52869;DHT22;39100;53.480;6.158;2022-08-20T02:37:35;17.50;99.90
52869;DHT22;39100;53.480;6.158;2022-08-20T02:40:03;17.40;99.90
52869;DHT22;39100;53.480;6.158;2022-08-20T02:42:29;17.50;99.90
52869;DHT22;39100;53.480;6.158;2022-08-20T02:44:55;17.50;99.90
52869;DHT22;39100;53.480;6.158;2022-08-20T02:47:22;17.50;99.90
52869;DHT22;39100;53.480;6.158;2022-08-20T02:49:49;17.50;99.90
52869;DHT22;39100;53.480;6.158;2022-08-20T02:52:14;17.50;99.90
52869;DHT22;39100;53.480;6.158;2022-08-20T02:54:40;17.50;99.90
52869;DHT22;39100;53.480;6.158;2022-08-20T02:57:12;17.50;99.90
52869;DHT22;39100;53.480;6.158;2022-08-20T02:59:37;17.60;99.90
52869;DHT22;39100;53.480;6.158;2022-08-20T03:02:03;17.60;99.90
52869;DHT22;39100;53.480;6.158;2022-08-20T03:04:29;17.60;99.90
52869;DHT22;39100;53.480;6.158;2022-08-20T03:06:56;17.60;99.90
52869;DHT22;39100;53.480;6.158;2022-08-20T03:09:21;17.60;99.90
52869;DHT22;39100;53.480;6.158;2022-08-20T03:11:47;17.60;99.90
52869;DHT22;39100;53.480;6.158;2022-08-20T03:14:13;17.60;99.90
52869;DHT22;39100;53.480;6.158;2022-08-20T03:16:38;17.60;99.90
52869;DHT22;39100;53.480;6.158;2022-08-20T03:19:04;17.60;99.90
52869;DHT22;39100;53.480;6.158;2022-08-20T03:21:29;17.60;99.90
52869;DHT22;39100;53.480;6.158;2022-08-20T03:23:55;17.60;99.90
52869;DHT22;39100;53.480;6.158;2022-08-20T03:26:20;17.60;99.90
52869;DHT22;39100;53.480;6.158;2022-08-20T03:28:46;17.50;99.90
52869;DHT22;39100;53.480;6.158;2022-08-20T03:31:12;17.50;99.90
52869;DHT22;39100;53.480;6.158;2022-08-20T03:33:39;17.50;99.90
52869;DHT22;39100;53.480;6.158;2022-08-20T03:36:06;17.50;99.90
52869;DHT22;39100;53.480;6.158;2022-08-20T03:38:32;17.50;99.90
52869;DHT22;39100;53.480;6.158;2022-08-20T03:40:57;17.40;99.90
52869;DHT22;39100;53.480;6.158;2022-08-20T03:43:23;17.40;99.90
52869;DHT22;39100;53.480;6.158;2022-08-20T03:45:49;17.30;99.90
52869;DHT22;39100;53.480;6.158;2022-08-20T03:48:17;17.30;99.90
52869;DHT22;39100;53.480;6.158;2022-08-20T03:50:44;17.30;99.90
52869;DHT22;39100;53.480;6.158;2022-08-20T03:53:10;17.20;99.90
52869;DHT22;39100;53.480;6.158;2022-08-20T03:55:37;17.20;99.90
52869;DHT22;39100;53.480;6.158;2022-08-20T03:58:05;17.20;99.90
52869;DHT22;39100;53.480;6.158;2022-08-20T04:02:59;17.20;99.90
52869;DHT22;39100;53.480;6.158;2022-08-20T04:05:27;17.20;99.90
52869;DHT22;39100;53.480;6.158;2022-08-20T04:07:54;17.20;99.90
52869;DHT22;39100;53.480;6.158;2022-08-20T04:10:20;17.10;99.90
52869;DHT22;39100;53.480;6.158;2022-08-20T04:12:46;17.10;99.90
52869;DHT22;39100;53.480;6.158;2022-08-20T04:15:14;17.10;99.90
52869;DHT22;39100;53.480;6.158;2022-08-20T04:17:42;17.10;99.90
52869;DHT22;39100;53.480;6.158;2022-08-20T04:20:10;17.10;99.90
52869;DHT22;39100;53.480;6.158;2022-08-20T04:22:36;17.00;99.90
52869;DHT22;39100;53.480;6.158;2022-08-20T04:25:03;17.00;99.90
52869;DHT22;39100;53.480;6.158;2022-08-20T04:27:29;17.00;99.90
52869;DHT22;39100;53.480;6.158;2022-08-20T04:29:58;17.00;99.90
52869;DHT22;39100;53.480;6.158;2022-08-20T04:32:24;16.90;99.90
52869;DHT22;39100;53.480;6.158;2022-08-20T04:34:50;16.90;99.90
52869;DHT22;39100;53.480;6.158;2022-08-20T04:37:20;16.90;99.90
52869;DHT22;39100;53.480;6.158;2022-08-20T04:39:47;16.90;99.90
52869;DHT22;39100;53.480;6.158;2022-08-20T04:42:35;16.90;99.90
52869;DHT22;39100;53.480;6.158;2022-08-20T04:45:00;16.90;99.90
52869;DHT22;39100;53.480;6.158;2022-08-20T04:47:26;16.80;99.90
52869;DHT22;39100;53.480;6.158;2022-08-20T04:49:52;16.80;99.90
52869;DHT22;39100;53.480;6.158;2022-08-20T04:52:17;16.80;99.90
52869;DHT22;39100;53.480;6.158;2022-08-20T04:54:43;16.80;99.90
52869;DHT22;39100;53.480;6.158;2022-08-20T04:57:08;16.90;99.90
52869;DHT22;39100;53.480;6.158;2022-08-20T04:59:34;16.90;99.90
52869;DHT22;39100;53.480;6.158;2022-08-20T05:02:00;16.90;99.90
52869;DHT22;39100;53.480;6.158;2022-08-20T05:04:26;16.90;99.90
52869;DHT22;39100;53.480;6.158;2022-08-20T05:06:52;16.90;99.90
52869;DHT22;39100;53.480;6.158;2022-08-20T05:09:17;16.90;99.90
52869;DHT22;39100;53.480;6.158;2022-08-20T05:11:43;17.00;99.90
52869;DHT22;39100;53.480;6.158;2022-08-20T05:14:08;17.00;99.90
52869;DHT22;39100;53.480;6.158;2022-08-20T05:16:36;17.10;99.90
52869;DHT22;39100;53.480;6.158;2022-08-20T05:19:02;17.10;99.90
52869;DHT22;39100;53.480;6.158;2022-08-20T05:21:28;17.10;99.90
52869;DHT22;39100;53.480;6.158;2022-08-20T05:23:53;17.20;99.90
52869;DHT22;39100;53.480;6.158;2022-08-20T05:26:19;17.20;99.90
52869;DHT22;39100;53.480;6.158;2022-08-20T05:28:44;17.20;99.90
52869;DHT22;39100;53.480;6.158;2022-08-20T05:31:10;17.20;99.90
52869;DHT22;39100;53.480;6.158;2022-08-20T05:33:37;17.10;99.90
52869;DHT22;39100;53.480;6.158;2022-08-20T05:36:04;17.10;99.90
52869;DHT22;39100;53.480;6.158;2022-08-20T05:38:31;17.00;99.90
52869;DHT22;39100;53.480;6.158;2022-08-20T05:40:59;16.90;99.90
52869;DHT22;39100;53.480;6.158;2022-08-20T05:43:24;16.80;99.90
52869;DHT22;39100;53.480;6.158;2022-08-20T05:45:50;16.80;99.90
52869;DHT22;39100;53.480;6.158;2022-08-20T05:48:20;16.80;99.90
52869;DHT22;39100;53.480;6.158;2022-08-20T05:50:47;16.80;99.90
52869;DHT22;39100;53.480;6.158;2022-08-20T05:53:14;16.80;99.90
52869;DHT22;39100;53.480;6.158;2022-08-20T05:55:41;16.90;99.90
52869;DHT22;39100;53.480;6.158;2022-08-20T05:58:14;17.10;99.90
52869;DHT22;39100;53.480;6.158;2022-08-20T06:00:40;17.20;99.90
52869;DHT22;39100;53.480;6.158;2022-08-20T06:03:05;17.30;99.90
52869;DHT22;39100;53.480;6.158;2022-08-20T06:05:50;17.50;99.90
52869;DHT22;39100;53.480;6.158;2022-08-20T06:08:16;17.80;99.90
52869;DHT22;39100;53.480;6.158;2022-08-20T06:10:41;18.00;99.90
52869;DHT22;39100;53.480;6.158;2022-08-20T06:13:08;18.30;99.90
52869;DHT22;39100;53.480;6.158;2022-08-20T06:15:34;18.50;99.90
52869;DHT22;39100;53.480;6.158;2022-08-20T06:18:00;18.70;99.90
52869;DHT22;39100;53.480;6.158;2022-08-20T06:20:26;18.90;99.90
52869;DHT22;39100;53.480;6.158;2022-08-20T06:22:54;19.10;99.90
52869;DHT22;39100;53.480;6.158;2022-08-20T06:25:19;19.30;99.90
52869;DHT22;39100;53.480;6.158;2022-08-20T06:27:45;19.40;99.90
52869;DHT22;39100;53.480;6.158;2022-08-20T06:30:13;19.50;99.90
52869;DHT22;39100;53.480;6.158;2022-08-20T06:32:39;19.70;99.90
52869;DHT22;39100;53.480;6.158;2022-08-20T06:35:07;19.80;99.90
52869;DHT22;39100;53.480;6.158;2022-08-20T06:37:34;19.80;99.90
52869;DHT22;39100;53.480;6.158;2022-08-20T06:40:13;19.90;99.90
52869;DHT22;39100;53.480;6.158;2022-08-20T06:42:39;19.80;99.90
52869;DHT22;39100;53.480;6.158;2022-08-20T06:45:14;19.80;99.90
52869;DHT22;39100;53.480;6.158;2022-08-20T06:47:43;19.90;99.90
52869;DHT22;39100;53.480;6.158;2022-08-20T06:50:18;20.00;99.90
52869;DHT22;39100;53.480;6.158;2022-08-20T06:52:44;20.10;99.90
52869;DHT22;39100;53.480;6.158;2022-08-20T06:55:12;20.20;99.90
52869;DHT22;39100;53.480;6.158;2022-08-20T06:57:38;20.30;99.90
52869;DHT22;39100;53.480;6.158;2022-08-20T07:00:13;20.30;99.90
52869;DHT22;39100;53.480;6.158;2022-08-20T07:02:39;20.40;99.90
52869;DHT22;39100;53.480;6.158;2022-08-20T07:05:06;20.50;99.90
52869;DHT22;39100;53.480;6.158;2022-08-20T07:07:32;20.50;99.90
52869;DHT22;39100;53.480;6.158;2022-08-20T07:10:10;20.60;99.90
52869;DHT22;39100;53.480;6.158;2022-08-20T07:12:36;20.80;99.90
52869;DHT22;39100;53.480;6.158;2022-08-20T07:15:07;21.00;99.90
52869;DHT22;39100;53.480;6.158;2022-08-20T07:17:33;21.20;99.90
52869;DHT22;39100;53.480;6.158;2022-08-20T07:20:03;21.20;99.90
52869;DHT22;39100;53.480;6.158;2022-08-20T07:22:29;21.30;99.90
52869;DHT22;39100;53.480;6.158;2022-08-20T07:24:55;21.40;99.90
52869;DHT22;39100;53.480;6.158;2022-08-20T07:27:21;21.50;99.90
52869;DHT22;39100;53.480;6.158;2022-08-20T07:29:48;21.60;99.90
52869;DHT22;39100;53.480;6.158;2022-08-20T07:32:32;21.70;99.90
52869;DHT22;39100;53.480;6.158;2022-08-20T07:35:10;21.90;99.90
52869;DHT22;39100;53.480;6.158;2022-08-20T07:37:37;22.10;99.90
52869;DHT22;39100;53.480;6.158;2022-08-20T07:40:05;22.30;99.90
52869;DHT22;39100;53.480;6.158;2022-08-20T07:42:31;22.40;99.90
52869;DHT22;39100;53.480;6.158;2022-08-20T07:44:56;22.40;99.90
52869;DHT22;39100;53.480;6.158;2022-08-20T07:47:22;22.60;99.90
52869;DHT22;39100;53.480;6.158;2022-08-20T07:49:47;22.60;99.90
52869;DHT22;39100;53.480;6.158;2022-08-20T07:52:13;22.80;99.90
52869;DHT22;39100;53.480;6.158;2022-08-20T07:54:40;23.00;99.90
52869;DHT22;39100;53.480;6.158;2022-08-20T07:57:07;23.20;99.90
52869;DHT22;39100;53.480;6.158;2022-08-20T07:59:34;23.30;99.90
52869;DHT22;39100;53.480;6.158;2022-08-20T08:01:59;23.60;99.90
52869;DHT22;39100;53.480;6.158;2022-08-20T08:04:25;23.10;99.90
52869;DHT22;39100;53.480;6.158;2022-08-20T08:06:51;23.40;99.90
52869;DHT22;39100;53.480;6.158;2022-08-20T08:09:17;23.60;99.90
52869;DHT22;39100;53.480;6.158;2022-08-20T08:11:48;23.80;99.90
52869;DHT22;39100;53.480;6.158;2022-08-20T08:14:20;24.00;99.90
52869;DHT22;39100;53.480;6.158;2022-08-20T08:16:49;24.20;99.90
52869;DHT22;39100;53.480;6.158;2022-08-20T08:19:16;24.30;99.90
52869;DHT22;39100;53.480;6.158;2022-08-20T08:21:42;24.50;99.90
52869;DHT22;39100;53.480;6.158;2022-08-20T08:24:09;24.60;99.90
52869;DHT22;39100;53.480;6.158;2022-08-20T08:26:35;24.60;99.90
52869;DHT22;39100;53.480;6.158;2022-08-20T08:29:01;24.70;99.90
52869;DHT22;39100;53.480;6.158;2022-08-20T08:31:27;24.50;99.90
52869;DHT22;39100;53.480;6.158;2022-08-20T08:33:53;24.20;99.90
52869;DHT22;39100;53.480;6.158;2022-08-20T08:36:18;24.30;99.90
52869;DHT22;39100;53.480;6.158;2022-08-20T08:38:44;24.50;99.90
52869;DHT22;39100;53.480;6.158;2022-08-20T08:41:32;24.90;99.90
52869;DHT22;39100;53.480;6.158;2022-08-20T08:44:07;25.30;99.90
52869;DHT22;39100;53.480;6.158;2022-08-20T08:46:40;25.70;99.90
52869;DHT22;39100;53.480;6.158;2022-08-20T08:49:10;25.70;99.90
52869;DHT22;39100;53.480;6.158;2022-08-20T08:51:43;25.80;99.90
52869;DHT22;39100;53.480;6.158;2022-08-20T08:54:14;25.80;99.90
52869;DHT22;39100;53.480;6.158;2022-08-20T08:56:41;26.00;99.90
52869;DHT22;39100;53.480;6.158;2022-08-20T08:59:08;25.80;99.90
52869;DHT22;39100;53.480;6.158;2022-08-20T09:01:43;25.80;99.90
52869;DHT22;39100;53.480;6.158;2022-08-20T09:04:13;25.70;99.90
52869;DHT22;39100;53.480;6.158;2022-08-20T09:06:40;25.40;99.90
52869;DHT22;39100;53.480;6.158;2022-08-20T09:09:17;25.10;99.90
52869;DHT22;39100;53.480;6.158;2022-08-20T09:11:46;25.10;99.90
52869;DHT22;39100;53.480;6.158;2022-08-20T09:14:12;25.10;99.90
52869;DHT22;39100;53.480;6.158;2022-08-20T09:16:38;25.10;99.90
52869;DHT22;39100;53.480;6.158;2022-08-20T09:19:03;25.20;99.90
52869;DHT22;39100;53.480;6.158;2022-08-20T09:21:29;25.00;99.90
52869;DHT22;39100;53.480;6.158;2022-08-20T09:23:54;25.00;99.90
52869;DHT22;39100;53.480;6.158;2022-08-20T09:26:20;25.00;99.90
52869;DHT22;39100;53.480;6.158;2022-08-20T09:28:46;25.00;99.90
52869;DHT22;39100;53.480;6.158;2022-08-20T09:31:11;24.80;99.90
52869;DHT22;39100;53.480;6.158;2022-08-20T09:33:37;24.80;99.90
52869;DHT22;39100;53.480;6.158;2022-08-20T09:36:02;24.80;99.90
52869;DHT22;39100;53.480;6.158;2022-08-20T09:38:28;24.90;99.90
52869;DHT22;39100;53.480;6.158;2022-08-20T09:40:54;25.00;99.90
52869;DHT22;39100;53.480;6.158;2022-08-20T09:43:20;25.00;99.90
52869;DHT22;39100;53.480;6.158;2022-08-20T09:45:45;25.10;99.90
52869;DHT22;39100;53.480;6.158;2022-08-20T09:48:11;25.00;99.90
52869;DHT22;39100;53.480;6.158;2022-08-20T09:50:41;24.90;99.90
52869;DHT22;39100;53.480;6.158;2022-08-20T09:53:08;24.70;99.90
52869;DHT22;39100;53.480;6.158;2022-08-20T09:55:36;24.50;99.90
52869;DHT22;39100;53.480;6.158;2022-08-20T09:58:52;24.40;99.90
52869;DHT22;39100;53.480;6.158;2022-08-20T10:00:51;24.10;99.90
52869;DHT22;39100;53.480;6.158;2022-08-20T10:03:18;23.90;99.90
52869;DHT22;39100;53.480;6.158;2022-08-20T10:05:43;23.70;99.90
52869;DHT22;39100;53.480;6.158;2022-08-20T10:08:10;23.60;99.90
52869;DHT22;39100;53.480;6.158;2022-08-20T10:10:36;23.70;99.90
52869;DHT22;39100;53.480;6.158;2022-08-20T10:13:02;23.70;99.90
52869;DHT22;39100;53.480;6.158;2022-08-20T10:15:28;23.60;99.90
52869;DHT22;39100;53.480;6.158;2022-08-20T10:17:54;23.40;99.90
52869;DHT22;39100;53.480;6.158;2022-08-20T10:20:22;23.30;99.90
52869;DHT22;39100;53.480;6.158;2022-08-20T10:22:48;23.10;99.90
52869;DHT22;39100;53.480;6.158;2022-08-20T10:25:13;22.90;99.90
52869;DHT22;39100;53.480;6.158;2022-08-20T10:27:41;22.90;99.90
52869;DHT22;39100;53.480;6.158;2022-08-20T10:30:07;22.80;99.90
52869;DHT22;39100;53.480;6.158;2022-08-20T10:32:32;22.70;99.90
52869;DHT22;39100;53.480;6.158;2022-08-20T10:34:58;22.70;99.90
52869;DHT22;39100;53.480;6.158;2022-08-20T10:37:25;22.70;99.90
52869;DHT22;39100;53.480;6.158;2022-08-20T10:39:51;22.80;99.90
52869;DHT22;39100;53.480;6.158;2022-08-20T10:42:17;23.00;99.90
52869;DHT22;39100;53.480;6.158;2022-08-20T10:44:43;23.30;99.90
52869;DHT22;39100;53.480;6.158;2022-08-20T10:47:24;23.70;99.90
52869;DHT22;39100;53.480;6.158;2022-08-20T10:49:52;24.10;99.90
52869;DHT22;39100;53.480;6.158;2022-08-20T10:52:20;24.00;99.90
52869;DHT22;39100;53.480;6.158;2022-08-20T10:54:46;24.30;99.90
52869;DHT22;39100;53.480;6.158;2022-08-20T10:57:23;24.40;99.90
52869;DHT22;39100;53.480;6.158;2022-08-20T10:59:51;24.40;99.90
52869;DHT22;39100;53.480;6.158;2022-08-20T11:02:18;24.60;99.90
52869;DHT22;39100;53.480;6.158;2022-08-20T11:04:44;24.70;99.90
52869;DHT22;39100;53.480;6.158;2022-08-20T11:07:18;24.80;99.90
52869;DHT22;39100;53.480;6.158;2022-08-20T11:09:46;25.00;99.90
52869;DHT22;39100;53.480;6.158;2022-08-20T11:12:12;25.00;99.90
52869;DHT22;39100;53.480;6.158;2022-08-20T11:14:37;25.40;99.90
52869;DHT22;39100;53.480;6.158;2022-08-20T11:17:03;25.40;99.90
52869;DHT22;39100;53.480;6.158;2022-08-20T11:19:29;25.40;99.90
52869;DHT22;39100;53.480;6.158;2022-08-20T11:21:55;25.30;99.90
52869;DHT22;39100;53.480;6.158;2022-08-20T11:24:21;25.20;99.90
52869;DHT22;39100;53.480;6.158;2022-08-20T11:26:47;25.30;99.90
52869;DHT22;39100;53.480;6.158;2022-08-20T11:29:14;25.40;99.90
52869;DHT22;39100;53.480;6.158;2022-08-20T11:31:39;25.50;99.90
52869;DHT22;39100;53.480;6.158;2022-08-20T11:34:08;25.40;99.90
52869;DHT22;39100;53.480;6.158;2022-08-20T11:36:34;25.30;99.90
52869;DHT22;39100;53.480;6.158;2022-08-20T11:39:00;25.20;99.90
52869;DHT22;39100;53.480;6.158;2022-08-20T11:41:26;25.40;99.90
52869;DHT22;39100;53.480;6.158;2022-08-20T11:43:51;25.40;99.90
52869;DHT22;39100;53.480;6.158;2022-08-20T11:46:17;25.50;99.90
52869;DHT22;39100;53.480;6.158;2022-08-20T11:48:42;25.80;99.90
52869;DHT22;39100;53.480;6.158;2022-08-20T11:51:08;26.20;99.90
52869;DHT22;39100;53.480;6.158;2022-08-20T11:53:34;26.50;99.90
52869;DHT22;39100;53.480;6.158;2022-08-20T11:56:00;26.70;99.90
52869;DHT22;39100;53.480;6.158;2022-08-20T11:58:25;27.00;99.90
52869;DHT22;39100;53.480;6.158;2022-08-20T12:00:51;27.00;99.90
52869;DHT22;39100;53.480;6.158;2022-08-20T12:03:17;26.70;99.90
52869;DHT22;39100;53.480;6.158;2022-08-20T12:05:44;26.60;99.90
52869;DHT22;39100;53.480;6.158;2022-08-20T12:08:11;26.70;99.90
52869;DHT22;39100;53.480;6.158;2022-08-20T12:10:37;27.20;99.90
52869;DHT22;39100;53.480;6.158;2022-08-20T12:13:04;27.70;99.90
52869;DHT22;39100;53.480;6.158;2022-08-20T12:15:31;28.30;99.90
52869;DHT22;39100;53.480;6.158;2022-08-20T12:17:56;28.40;99.90
52869;DHT22;39100;53.480;6.158;2022-08-20T12:20:22;28.80;99.90
52869;DHT22;39100;53.480;6.158;2022-08-20T12:22:48;29.00;99.90
52869;DHT22;39100;53.480;6.158;2022-08-20T12:25:14;29.10;99.90
52869;DHT22;39100;53.480;6.158;2022-08-20T12:27:40;29.00;99.90
52869;DHT22;39100;53.480;6.158;2022-08-20T12:30:09;29.10;99.90
52869;DHT22;39100;53.480;6.158;2022-08-20T12:32:35;29.10;99.90
52869;DHT22;39100;53.480;6.158;2022-08-20T12:35:02;28.60;99.90
52869;DHT22;39100;53.480;6.158;2022-08-20T12:37:29;28.00;99.90
52869;DHT22;39100;53.480;6.158;2022-08-20T12:39:58;27.60;99.90
52869;DHT22;39100;53.480;6.158;2022-08-20T12:42:24;27.60;99.90
52869;DHT22;39100;53.480;6.158;2022-08-20T12:44:50;27.80;99.90
52869;DHT22;39100;53.480;6.158;2022-08-20T12:47:20;28.20;99.90
52869;DHT22;39100;53.480;6.158;2022-08-20T12:49:55;28.10;99.90
52869;DHT22;39100;53.480;6.158;2022-08-20T12:52:22;27.90;99.90
52869;DHT22;39100;53.480;6.158;2022-08-20T12:54:48;28.60;99.90
52869;DHT22;39100;53.480;6.158;2022-08-20T12:57:35;28.50;99.90
52869;DHT22;39100;53.480;6.158;2022-08-20T13:02:36;27.70;99.90
52869;DHT22;39100;53.480;6.158;2022-08-20T13:05:04;27.40;99.90
52869;DHT22;39100;53.480;6.158;2022-08-20T13:07:30;26.80;99.90
52869;DHT22;39100;53.480;6.158;2022-08-20T13:09:57;26.50;99.90
52869;DHT22;39100;53.480;6.158;2022-08-20T13:12:22;26.20;99.90
52869;DHT22;39100;53.480;6.158;2022-08-20T13:14:48;25.90;99.90
52869;DHT22;39100;53.480;6.158;2022-08-20T13:17:16;25.70;99.90
52869;DHT22;39100;53.480;6.158;2022-08-20T13:19:42;25.40;99.90
52869;DHT22;39100;53.480;6.158;2022-08-20T13:22:09;25.20;99.90
52869;DHT22;39100;53.480;6.158;2022-08-20T13:24:36;25.30;99.90
52869;DHT22;39100;53.480;6.158;2022-08-20T13:27:13;25.70;99.90
52869;DHT22;39100;53.480;6.158;2022-08-20T13:29:50;25.90;99.90
52869;DHT22;39100;53.480;6.158;2022-08-20T13:32:16;26.20;99.90
52869;DHT22;39100;53.480;6.158;2022-08-20T13:34:42;26.50;99.90
52869;DHT22;39100;53.480;6.158;2022-08-20T13:37:17;26.90;99.90
52869;DHT22;39100;53.480;6.158;2022-08-20T13:39:43;27.30;99.90
52869;DHT22;39100;53.480;6.158;2022-08-20T13:42:09;27.60;99.90
52869;DHT22;39100;53.480;6.158;2022-08-20T13:44:35;27.70;99.90
52869;DHT22;39100;53.480;6.158;2022-08-20T13:47:34;27.70;99.90
52869;DHT22;39100;53.480;6.158;2022-08-20T13:50:02;27.90;99.90
52869;DHT22;39100;53.480;6.158;2022-08-20T13:52:30;27.80;99.90
52869;DHT22;39100;53.480;6.158;2022-08-20T13:54:56;27.60;99.90
52869;DHT22;39100;53.480;6.158;2022-08-20T13:57:23;27.70;99.90
52869;DHT22;39100;53.480;6.158;2022-08-20T13:59:51;27.80;99.90
52869;DHT22;39100;53.480;6.158;2022-08-20T14:02:18;27.60;99.90
52869;DHT22;39100;53.480;6.158;2022-08-20T14:04:44;27.50;99.90
52869;DHT22;39100;53.480;6.158;2022-08-20T14:07:24;27.00;99.90
52869;DHT22;39100;53.480;6.158;2022-08-20T14:09:57;27.10;99.90
52869;DHT22;39100;53.480;6.158;2022-08-20T14:12:23;27.00;99.90
52869;DHT22;39100;53.480;6.158;2022-08-20T14:14:50;27.00;99.90
52869;DHT22;39100;53.480;6.158;2022-08-20T14:17:22;26.80;99.90
52869;DHT22;39100;53.480;6.158;2022-08-20T14:19:50;26.90;99.90
52869;DHT22;39100;53.480;6.158;2022-08-20T14:22:16;26.90;99.90
52869;DHT22;39100;53.480;6.158;2022-08-20T14:24:43;26.70;99.90
52869;DHT22;39100;53.480;6.158;2022-08-20T14:27:09;26.40;99.90
52869;DHT22;39100;53.480;6.158;2022-08-20T14:29:36;26.20;99.90
52869;DHT22;39100;53.480;6.158;2022-08-20T14:32:03;26.10;99.90
52869;DHT22;39100;53.480;6.158;2022-08-20T14:34:29;26.10;99.90
52869;DHT22;39100;53.480;6.158;2022-08-20T14:36:55;25.90;99.90
52869;DHT22;39100;53.480;6.158;2022-08-20T14:39:23;25.70;99.90
52869;DHT22;39100;53.480;6.158;2022-08-20T14:41:49;25.30;99.90
52869;DHT22;39100;53.480;6.158;2022-08-20T14:44:15;25.10;99.90
52869;DHT22;39100;53.480;6.158;2022-08-20T14:46:41;25.10;99.90
52869;DHT22;39100;53.480;6.158;2022-08-20T14:49:06;25.30;99.90
52869;DHT22;39100;53.480;6.158;2022-08-20T14:51:32;25.60;99.90
52869;DHT22;39100;53.480;6.158;2022-08-20T14:53:57;25.80;99.90
52869;DHT22;39100;53.480;6.158;2022-08-20T14:56:23;26.00;99.90
52869;DHT22;39100;53.480;6.158;2022-08-20T14:58:49;26.20;99.90
52869;DHT22;39100;53.480;6.158;2022-08-20T15:01:15;26.30;99.90
52869;DHT22;39100;53.480;6.158;2022-08-20T15:03:40;26.40;99.90
52869;DHT22;39100;53.480;6.158;2022-08-20T15:06:06;26.20;99.90
52869;DHT22;39100;53.480;6.158;2022-08-20T15:08:32;26.30;99.90
52869;DHT22;39100;53.480;6.158;2022-08-20T15:10:57;26.20;99.90
52869;DHT22;39100;53.480;6.158;2022-08-20T15:13:23;26.30;99.90
52869;DHT22;39100;53.480;6.158;2022-08-20T15:15:49;26.30;99.90
52869;DHT22;39100;53.480;6.158;2022-08-20T15:18:14;26.20;99.90
52869;DHT22;39100;53.480;6.158;2022-08-20T15:20:40;26.10;99.90
52869;DHT22;39100;53.480;6.158;2022-08-20T15:23:06;26.00;99.90
52869;DHT22;39100;53.480;6.158;2022-08-20T15:25:33;25.80;99.90
52869;DHT22;39100;53.480;6.158;2022-08-20T15:27:59;25.70;99.90
52869;DHT22;39100;53.480;6.158;2022-08-20T15:30:26;25.80;99.90
52869;DHT22;39100;53.480;6.158;2022-08-20T15:32:52;25.70;99.90
52869;DHT22;39100;53.480;6.158;2022-08-20T15:35:19;25.50;99.90
52869;DHT22;39100;53.480;6.158;2022-08-20T15:37:47;25.50;99.90
52869;DHT22;39100;53.480;6.158;2022-08-20T15:40:18;25.40;99.90
52869;DHT22;39100;53.480;6.158;2022-08-20T15:42:45;25.40;99.90